createdAt,value
2022-07-25T00:00:28.952Z,60.28
2022-07-25T00:03:01.460Z,60.49
2022-07-25T00:05:37.799Z,60.45
2022-07-25T00:08:06.530Z,61.35
2022-07-25T00:10:34.175Z,61.81
2022-07-25T00:13:05.377Z,63.16
2022-07-25T00:15:41.474Z,64.42
2022-07-25T00:18:09.747Z,65.29
2022-07-25T00:20:39.332Z,64.64
2022-07-25T00:23:07.381Z,65.00
2022-07-25T00:25:35.090Z,64.82
2022-07-25T00:28:04.261Z,65.18
2022-07-25T00:30:34.398Z,64.52
2022-07-25T00:33:02.435Z,65.38
2022-07-25T00:35:30.203Z,65.50
2022-07-25T00:38:03.299Z,64.58
2022-07-25T00:40:32.999Z,64.20
2022-07-25T00:43:00.970Z,65.38
2022-07-25T00:45:31.019Z,65.14
2022-07-25T00:47:59.052Z,64.53
2022-07-25T00:50:27.021Z,65.36
2022-07-25T00:52:55.099Z,65.30
2022-07-25T00:55:24.283Z,65.64
2022-07-25T00:57:52.223Z,66.01
2022-07-25T01:00:19.993Z,66.23
2022-07-25T01:02:48.361Z,65.61
2022-07-25T01:05:18.913Z,65.65
2022-07-25T01:07:46.511Z,65.25
2022-07-25T01:10:16.160Z,65.39
2022-07-25T01:12:52.802Z,65.11
2022-07-25T01:15:20.603Z,64.12
2022-07-25T01:17:52.901Z,62.77
2022-07-25T01:20:23.720Z,63.11
2022-07-25T01:22:52.049Z,63.68
2022-07-25T01:25:28.887Z,63.75
2022-07-25T01:27:57.749Z,65.01
2022-07-25T01:30:25.754Z,64.47
2022-07-25T01:32:59.396Z,66.43
2022-07-25T01:35:41.523Z,66.93
2022-07-25T01:38:14.113Z,68.59
2022-07-25T01:40:42.061Z,68.54
2022-07-25T01:43:10.143Z,68.61
2022-07-25T01:45:38.325Z,68.61
2022-07-25T01:48:08.534Z,67.85
2022-07-25T01:50:38.467Z,68.13
2022-07-25T01:53:06.594Z,66.57
2022-07-25T01:55:36.118Z,67.29
2022-07-25T01:58:11.488Z,67.03
2022-07-25T02:00:40.075Z,66.50
2022-07-25T02:03:27.341Z,68.18
2022-07-25T02:05:56.652Z,69.83
2022-07-25T02:08:24.389Z,70.51
2022-07-25T02:10:52.526Z,70.60
2022-07-25T02:13:20.124Z,70.96
2022-07-25T02:15:47.888Z,71.01
2022-07-25T02:18:16.264Z,70.99
2022-07-25T02:20:46.507Z,70.40
2022-07-25T02:23:16.986Z,71.04
2022-07-25T02:25:44.681Z,70.08
2022-07-25T02:28:12.273Z,70.91
2022-07-25T02:30:40.414Z,71.38
2022-07-25T02:33:08.494Z,71.67
2022-07-25T02:35:36.690Z,72.00
2022-07-25T02:38:19.548Z,71.30
2022-07-25T02:40:56.597Z,70.80
2022-07-25T02:43:27.673Z,71.45
2022-07-25T02:45:55.958Z,71.87
2022-07-25T02:48:30.352Z,71.86
2022-07-25T02:50:57.984Z,71.55
2022-07-25T02:53:54.398Z,71.36
2022-07-25T02:56:16.311Z,71.45
2022-07-25T02:58:44.199Z,71.23
2022-07-25T03:01:12.070Z,71.21
2022-07-25T03:03:43.197Z,71.32
2022-07-25T03:06:12.907Z,70.78
2022-07-25T03:08:41.131Z,71.58
2022-07-25T03:11:09.002Z,72.12
2022-07-25T03:13:39.400Z,71.91
2022-07-25T03:16:07.945Z,71.72
2022-07-25T03:18:35.617Z,71.10
2022-07-25T03:21:16.538Z,70.75
2022-07-25T03:23:52.276Z,72.27
2022-07-25T03:26:20.797Z,72.37
2022-07-25T03:28:49.884Z,72.27
2022-07-25T03:31:18.063Z,72.54
2022-07-25T03:33:46.389Z,72.84
2022-07-25T03:36:14.023Z,72.96
2022-07-25T03:38:41.739Z,73.27
2022-07-25T03:41:10.062Z,73.76
2022-07-25T03:43:38.360Z,74.11
2022-07-25T03:46:10.059Z,73.78
2022-07-25T03:48:40.474Z,73.80
2022-07-25T03:51:09.783Z,74.21
2022-07-25T03:53:57.755Z,74.45
2022-07-25T03:56:28.529Z,74.22
2022-07-25T03:58:56.422Z,74.70
2022-07-25T04:01:28.753Z,75.37
2022-07-25T04:03:56.410Z,74.92
2022-07-25T04:06:24.619Z,74.94
2022-07-25T04:08:52.907Z,74.63
2022-07-25T04:11:24.662Z,75.18
2022-07-25T04:13:53.228Z,75.34
2022-07-25T04:16:22.487Z,75.07
2022-07-25T04:18:52.259Z,74.42
2022-07-25T04:21:20.022Z,72.98
2022-07-25T04:23:48.530Z,70.86
2022-07-25T04:26:16.798Z,68.17
2022-07-25T04:28:47.152Z,65.90
2022-07-25T04:31:15.004Z,67.68
2022-07-25T04:33:46.165Z,68.73
2022-07-25T04:36:15.446Z,69.94
2022-07-25T04:38:45.943Z,71.87
2022-07-25T04:41:15.820Z,71.68
2022-07-25T04:43:48.495Z,71.72
2022-07-25T04:46:22.067Z,71.76
2022-07-25T04:48:53.298Z,70.96
2022-07-25T04:51:25.815Z,72.62
2022-07-25T04:53:53.450Z,71.90
2022-07-25T04:56:24.177Z,71.75
2022-07-25T04:58:52.042Z,70.43
2022-07-25T05:01:20.104Z,69.73
2022-07-25T05:03:50.466Z,69.60
2022-07-25T05:06:19.600Z,69.19
2022-07-25T05:08:49.006Z,68.94
2022-07-25T05:11:22.821Z,68.75
2022-07-25T05:13:50.565Z,69.76
2022-07-25T05:16:19.197Z,69.32
2022-07-25T05:18:47.187Z,68.32
2022-07-25T05:21:14.953Z,67.05
2022-07-25T05:23:45.416Z,67.19
2022-07-25T05:26:15.331Z,66.76
2022-07-25T05:28:43.094Z,67.53
2022-07-25T05:31:11.373Z,65.54
2022-07-25T05:33:39.124Z,65.98
2022-07-25T05:36:08.804Z,65.91
2022-07-25T05:38:38.517Z,65.74
2022-07-25T05:41:06.339Z,64.68
2022-07-25T05:43:35.650Z,65.22
2022-07-25T05:46:03.791Z,64.96
2022-07-25T05:48:32.979Z,63.40
2022-07-25T05:51:01.042Z,64.33
2022-07-25T05:53:30.685Z,64.28
2022-07-25T05:55:58.545Z,63.17
2022-07-25T05:58:29.655Z,62.52
2022-07-25T06:01:00.342Z,63.15
2022-07-25T06:03:28.313Z,62.66
2022-07-25T06:05:56.600Z,61.58
2022-07-25T06:08:24.839Z,61.90
2022-07-25T06:10:52.674Z,61.36
2022-07-25T06:13:25.564Z,60.49
2022-07-25T06:15:56.392Z,60.06
2022-07-25T06:18:25.812Z,58.18
2022-07-25T06:20:54.193Z,59.27
2022-07-25T06:23:22.387Z,59.23
2022-07-25T06:25:55.744Z,58.42
2022-07-25T06:28:24.454Z,57.21
2022-07-25T06:30:54.044Z,57.20
2022-07-25T06:33:22.346Z,57.31
2022-07-25T06:35:52.157Z,57.29
2022-07-25T06:38:22.863Z,58.27
2022-07-25T06:40:51.260Z,58.77
2022-07-25T06:43:23.915Z,57.42
2022-07-25T06:46:05.734Z,58.47
2022-07-25T06:48:35.060Z,57.23
2022-07-25T06:51:05.551Z,57.91
2022-07-25T06:53:36.624Z,58.08
2022-07-25T06:56:07.204Z,57.81
2022-07-25T06:58:34.881Z,58.03
2022-07-25T07:01:06.191Z,57.42
2022-07-25T07:03:38.479Z,57.74
2022-07-25T07:06:09.878Z,56.37
2022-07-25T07:08:37.704Z,56.88
2022-07-25T07:11:06.046Z,56.97
2022-07-25T07:13:33.854Z,57.15
2022-07-25T07:16:02.206Z,55.91
2022-07-25T07:18:30.116Z,55.55
2022-07-25T07:20:58.568Z,54.86
2022-07-25T07:23:29.118Z,54.33
2022-07-25T07:25:57.284Z,53.75
2022-07-25T07:28:25.464Z,53.58
2022-07-25T07:31:15.739Z,53.17
2022-07-25T07:33:43.930Z,53.94
2022-07-25T07:36:11.719Z,53.37
2022-07-25T07:38:41.706Z,53.73
2022-07-25T07:41:09.467Z,53.19
2022-07-25T07:43:37.664Z,53.89
2022-07-25T07:46:08.960Z,54.00
2022-07-25T07:48:38.658Z,52.91
2022-07-25T07:51:06.973Z,53.26
2022-07-25T07:53:54.092Z,53.90
2022-07-25T07:56:23.692Z,52.98
2022-07-25T07:58:51.391Z,50.95
2022-07-25T08:01:19.319Z,51.31
2022-07-25T08:03:49.478Z,50.76
2022-07-25T08:06:22.558Z,50.69
2022-07-25T08:08:50.371Z,51.18
2022-07-25T08:11:21.062Z,50.36
2022-07-25T08:13:54.212Z,51.27
2022-07-25T08:16:23.558Z,49.16
2022-07-25T08:18:51.664Z,50.16
2022-07-25T08:21:19.886Z,49.10
2022-07-25T08:23:51.587Z,47.99
2022-07-25T08:26:22.233Z,48.15
2022-07-25T08:29:05.053Z,47.02
2022-07-25T08:31:40.183Z,46.46
2022-07-25T08:34:09.521Z,46.11
2022-07-25T08:36:39.067Z,45.66
2022-07-25T08:39:06.885Z,45.41
2022-07-25T08:41:38.238Z,46.77
2022-07-25T08:47:19.987Z,47.03
2022-07-25T08:49:49.286Z,45.41
2022-07-25T08:52:17.200Z,45.49
2022-07-25T08:54:47.781Z,43.98
2022-07-25T08:57:21.546Z,43.85
2022-07-25T08:59:50.231Z,43.75
2022-07-25T09:02:20.256Z,42.90
2022-07-25T09:04:48.770Z,43.25
2022-07-25T09:07:16.846Z,42.90
2022-07-25T09:09:44.812Z,41.40
2022-07-25T09:12:12.879Z,40.40
2022-07-25T09:14:44.558Z,40.91
2022-07-25T09:17:21.961Z,41.96
2022-07-25T09:19:56.031Z,41.90
2022-07-25T09:22:24.672Z,40.97
2022-07-25T09:24:52.453Z,39.45
2022-07-25T09:27:20.389Z,40.28
2022-07-25T09:29:49.934Z,40.89
2022-07-25T09:32:20.298Z,41.09
2022-07-25T09:34:48.614Z,40.75
2022-07-25T09:37:18.877Z,40.26
2022-07-25T09:39:51.201Z,38.92
2022-07-25T09:42:21.325Z,38.24
2022-07-25T09:45:01.622Z,38.74
2022-07-25T09:47:30.659Z,37.85
2022-07-25T09:49:58.778Z,36.99
2022-07-25T09:52:29.268Z,36.98
2022-07-25T09:55:00.369Z,36.76
2022-07-25T09:57:28.610Z,36.37
2022-07-25T09:59:56.445Z,36.76
2022-07-25T10:02:29.547Z,37.17
2022-07-25T10:05:01.114Z,36.76
2022-07-25T10:07:31.664Z,36.56
2022-07-25T10:09:59.524Z,36.14
2022-07-25T10:12:27.657Z,37.27
2022-07-25T10:15:06.174Z,36.28
2022-07-25T10:17:36.080Z,36.44
2022-07-25T10:20:05.079Z,36.70
2022-07-25T10:22:55.951Z,36.27
2022-07-25T10:25:26.208Z,36.03
2022-07-25T10:28:01.121Z,36.90
2022-07-25T10:30:30.808Z,37.32
2022-07-25T10:33:04.452Z,36.71
2022-07-25T10:35:35.227Z,37.51
2022-07-25T10:38:05.632Z,37.15
2022-07-25T10:40:36.613Z,35.50
2022-07-25T10:43:08.774Z,36.43
2022-07-25T10:45:41.119Z,37.33
2022-07-25T10:48:12.794Z,37.17
2022-07-25T10:50:58.599Z,36.38
2022-07-25T10:53:34.085Z,36.77
2022-07-25T10:56:06.664Z,35.90
2022-07-25T10:58:44.639Z,36.20
2022-07-25T11:01:14.379Z,36.58
2022-07-25T11:03:45.139Z,36.10
2022-07-25T11:06:17.506Z,35.72
2022-07-25T11:08:46.911Z,35.30
2022-07-25T11:11:15.286Z,36.42
2022-07-25T11:13:44.592Z,35.03
2022-07-25T11:16:14.732Z,34.59
2022-07-25T11:18:44.000Z,34.66
2022-07-25T11:21:15.339Z,35.68
2022-07-25T11:23:43.554Z,36.07
2022-07-25T11:26:13.540Z,36.03
2022-07-25T11:28:42.433Z,35.63
2022-07-25T11:31:11.092Z,35.26
2022-07-25T11:33:39.486Z,35.10
2022-07-25T11:36:17.366Z,35.45
2022-07-25T11:38:50.442Z,35.24
2022-07-25T11:41:30.309Z,35.51
2022-07-25T11:43:58.297Z,35.35
2022-07-25T11:46:26.174Z,34.98
2022-07-25T11:48:54.575Z,34.96
2022-07-25T11:51:22.476Z,35.41
2022-07-25T11:53:51.630Z,35.54
2022-07-25T11:56:41.336Z,36.48
2022-07-25T11:59:10.495Z,35.84
2022-07-25T12:01:39.133Z,36.24
2022-07-25T12:04:10.674Z,37.03
2022-07-25T12:06:39.391Z,36.81
2022-07-25T12:09:19.263Z,37.24
2022-07-25T12:11:47.583Z,37.66
2022-07-25T12:14:18.710Z,38.45
2022-07-25T12:16:46.936Z,38.17
2022-07-25T12:19:21.318Z,38.29
2022-07-25T12:21:49.089Z,38.41
2022-07-25T12:24:16.893Z,38.46
2022-07-25T12:26:44.540Z,39.03
2022-07-25T12:29:12.512Z,38.69
2022-07-25T12:31:42.014Z,38.65
2022-07-25T12:34:14.466Z,39.56
2022-07-25T12:36:45.089Z,39.79
2022-07-25T12:39:12.955Z,40.19
2022-07-25T12:41:44.936Z,39.26
2022-07-25T12:44:12.893Z,38.74
2022-07-25T12:46:48.829Z,37.95
2022-07-25T12:49:17.411Z,37.40
2022-07-25T12:51:46.635Z,38.15
2022-07-25T12:54:21.677Z,38.71
2022-07-25T12:56:51.036Z,38.17
2022-07-25T12:59:22.793Z,36.75
2022-07-25T13:01:52.771Z,37.37
2022-07-25T13:04:20.540Z,37.69
2022-07-25T13:06:54.414Z,37.29
2022-07-25T13:09:23.512Z,37.00
2022-07-25T13:11:53.308Z,36.79
2022-07-25T13:14:21.254Z,36.62
2022-07-25T13:16:49.677Z,35.32
2022-07-25T13:19:19.050Z,36.39
2022-07-25T13:21:49.168Z,35.14
2022-07-25T13:24:17.183Z,34.77
2022-07-25T13:26:44.867Z,35.20
2022-07-25T13:29:12.739Z,35.77
2022-07-25T13:31:41.412Z,36.46
2022-07-25T13:34:10.726Z,36.99
2022-07-25T13:36:40.296Z,37.09
2022-07-25T13:39:11.225Z,37.92
2022-07-25T13:41:42.770Z,38.45
2022-07-25T13:44:10.803Z,38.69
2022-07-25T13:46:45.191Z,39.32
2022-07-25T13:49:14.166Z,38.91
2022-07-25T13:51:45.538Z,39.09
2022-07-25T13:54:16.237Z,39.43
2022-07-25T13:56:44.203Z,40.17
2022-07-25T13:59:17.352Z,39.94
2022-07-25T14:01:49.591Z,41.47
2022-07-25T14:04:17.917Z,43.36
2022-07-25T14:06:51.949Z,44.38
2022-07-25T14:09:20.524Z,43.65
2022-07-25T14:11:48.243Z,43.25
2022-07-25T14:14:15.926Z,42.95
2022-07-25T14:16:47.603Z,42.88
2022-07-25T14:19:15.370Z,43.12
2022-07-25T14:21:43.077Z,43.72
2022-07-25T14:24:13.245Z,42.86
2022-07-25T14:26:41.231Z,42.33
2022-07-25T14:29:11.579Z,40.47
2022-07-25T14:31:44.671Z,41.27
2022-07-25T14:34:15.698Z,41.26
2022-07-25T14:36:47.570Z,41.01
2022-07-25T14:39:20.218Z,41.16
2022-07-25T14:41:48.067Z,41.42
2022-07-25T14:44:15.928Z,41.51
2022-07-25T14:46:44.115Z,41.69
2022-07-25T14:49:13.952Z,41.75
2022-07-25T14:51:44.753Z,41.68
2022-07-25T14:54:15.304Z,41.92
2022-07-25T14:56:50.723Z,41.76
2022-07-25T14:59:19.221Z,41.03
2022-07-25T15:01:47.020Z,41.45
2022-07-25T15:04:19.943Z,42.17
2022-07-25T15:06:47.904Z,42.89
2022-07-25T15:09:15.623Z,44.67
2022-07-25T15:11:48.995Z,45.93
2022-07-25T15:14:19.458Z,47.61
2022-07-25T15:16:47.255Z,47.12
2022-07-25T15:19:16.896Z,47.66
2022-07-25T15:21:45.700Z,48.49
2022-07-25T15:24:13.617Z,49.41
2022-07-25T15:26:42.313Z,47.84
2022-07-25T15:29:13.528Z,49.64
2022-07-25T15:31:41.474Z,49.65
2022-07-25T15:34:09.224Z,47.72
2022-07-25T15:36:37.392Z,47.29
2022-07-25T15:39:06.255Z,47.19
2022-07-25T15:41:34.536Z,47.09
2022-07-25T15:44:02.290Z,46.82
2022-07-25T15:46:31.411Z,45.66
2022-07-25T15:48:59.302Z,45.07
2022-07-25T15:51:27.081Z,44.77
2022-07-25T15:53:54.705Z,44.28
2022-07-25T15:56:26.701Z,43.90
2022-07-25T15:58:54.609Z,44.53
2022-07-25T16:01:22.832Z,44.05
2022-07-25T16:03:54.442Z,43.88
2022-07-25T16:06:22.833Z,42.94
2022-07-25T16:08:53.353Z,42.68
2022-07-25T16:11:21.106Z,41.96
2022-07-25T16:13:48.750Z,41.75
2022-07-25T16:16:16.693Z,41.71
2022-07-25T16:18:45.947Z,41.47
2022-07-25T16:21:15.334Z,42.89
2022-07-25T16:23:48.474Z,42.85
2022-07-25T16:26:16.080Z,43.01
2022-07-25T16:28:45.031Z,43.23
2022-07-25T16:31:13.841Z,43.23
2022-07-25T16:33:44.229Z,42.70
2022-07-25T16:36:15.126Z,42.80
2022-07-25T16:38:45.297Z,42.66
2022-07-25T16:41:13.093Z,43.21
2022-07-25T16:43:40.996Z,43.09
2022-07-25T16:46:08.785Z,43.39
2022-07-25T16:48:38.701Z,43.61
2022-07-25T16:51:07.253Z,43.67
2022-07-25T16:53:36.554Z,44.23
2022-07-25T16:56:07.448Z,44.18
2022-07-25T16:58:35.238Z,43.87
2022-07-25T17:01:02.989Z,44.54
2022-07-25T17:03:33.358Z,44.86
2022-07-25T17:06:05.844Z,45.19
2022-07-25T17:08:34.330Z,45.25
2022-07-25T17:11:02.439Z,45.41
2022-07-25T17:13:31.548Z,45.46
2022-07-25T17:16:02.693Z,45.45
2022-07-25T17:18:30.415Z,45.78
2022-07-25T17:20:58.473Z,46.13
2022-07-25T17:23:26.233Z,45.50
2022-07-25T17:25:59.192Z,46.33
2022-07-25T17:28:26.944Z,46.40
2022-07-25T17:30:56.439Z,46.62
2022-07-25T17:33:24.063Z,46.23
2022-07-25T17:35:52.260Z,46.03
2022-07-25T17:38:25.346Z,47.22
2022-07-25T17:40:54.103Z,46.94
2022-07-25T17:43:21.831Z,47.41
2022-07-25T17:45:52.655Z,47.81
2022-07-25T17:48:22.096Z,47.13
2022-07-25T17:50:50.072Z,48.08
2022-07-25T17:53:18.231Z,48.48
2022-07-25T17:55:58.789Z,49.19
2022-07-25T17:58:29.285Z,49.54
2022-07-25T18:01:01.144Z,48.50
2022-07-25T18:03:30.551Z,49.82
2022-07-25T18:05:58.640Z,49.77
2022-07-25T18:08:30.512Z,49.86
2022-07-25T18:10:58.294Z,49.61
2022-07-25T18:13:26.128Z,48.80
2022-07-25T18:15:54.653Z,49.82
2022-07-25T18:18:22.464Z,50.33
2022-07-25T18:20:51.771Z,50.21
2022-07-25T18:23:22.033Z,50.42
2022-07-25T18:25:53.539Z,50.06
2022-07-25T18:28:21.780Z,49.75
2022-07-25T18:30:49.889Z,49.74
2022-07-25T18:33:19.184Z,49.92
2022-07-25T18:35:46.845Z,49.65
2022-07-25T18:38:19.711Z,49.74
2022-07-25T18:40:47.363Z,49.86
2022-07-25T18:43:15.353Z,50.07
2022-07-25T18:45:46.708Z,50.18
2022-07-25T18:48:14.335Z,49.36
2022-07-25T18:50:42.047Z,48.58
2022-07-25T18:53:10.366Z,49.44
2022-07-25T18:55:39.444Z,48.96
2022-07-25T18:58:08.950Z,49.62
2022-07-25T19:00:36.661Z,49.11
2022-07-25T19:03:07.097Z,48.92
2022-07-25T19:05:35.065Z,48.91
2022-07-25T19:08:03.591Z,48.97
2022-07-25T19:10:31.706Z,49.54
2022-07-25T19:13:02.248Z,48.95
2022-07-25T19:15:30.101Z,49.37
2022-07-25T19:17:57.842Z,49.09
2022-07-25T19:20:25.488Z,48.80
2022-07-25T19:22:53.292Z,48.71
2022-07-25T19:25:21.002Z,47.92
2022-07-25T19:27:48.701Z,48.15
2022-07-25T19:30:19.917Z,48.75
2022-07-25T19:32:47.887Z,48.84
2022-07-25T19:35:15.790Z,49.25
2022-07-25T19:37:43.599Z,48.68
2022-07-25T19:40:11.643Z,48.46
2022-07-25T19:42:39.566Z,48.70
2022-07-25T19:45:10.296Z,48.47
2022-07-25T19:47:39.431Z,49.10
2022-07-25T19:50:07.678Z,48.76
2022-07-25T19:52:35.431Z,48.90
2022-07-25T19:55:03.480Z,49.30
2022-07-25T19:57:31.181Z,48.77
2022-07-25T19:59:59.026Z,48.60
2022-07-25T20:02:26.997Z,49.93
2022-07-25T20:04:56.060Z,50.61
2022-07-25T20:07:24.696Z,49.96
2022-07-25T20:09:52.707Z,49.63
2022-07-25T20:12:20.776Z,50.30
2022-07-25T20:14:48.510Z,50.93
2022-07-25T20:17:16.698Z,50.70
2022-07-25T20:19:47.464Z,50.94
2022-07-25T20:22:16.779Z,50.19
2022-07-25T20:24:44.600Z,49.95
2022-07-25T20:27:14.450Z,49.90
2022-07-25T20:29:42.459Z,50.85
2022-07-25T20:32:10.086Z,51.10
2022-07-25T20:34:38.234Z,50.75
2022-07-25T20:37:19.671Z,50.61
2022-07-25T20:39:48.986Z,51.20
2022-07-25T20:42:19.471Z,51.28
2022-07-25T20:44:50.376Z,51.64
2022-07-25T20:47:18.226Z,51.71
2022-07-25T20:49:46.119Z,52.12
2022-07-25T20:52:13.949Z,51.45
2022-07-25T20:54:45.614Z,51.16
2022-07-25T20:57:24.178Z,51.26
2022-07-25T20:59:53.790Z,52.02
2022-07-25T21:02:21.556Z,52.00
2022-07-25T21:04:51.076Z,50.71
2022-07-25T21:07:21.523Z,50.74
2022-07-25T21:09:49.298Z,50.69
2022-07-25T21:12:18.533Z,50.66
2022-07-25T21:14:46.249Z,50.86
2022-07-25T21:17:13.966Z,50.62
2022-07-25T21:19:41.693Z,51.33
2022-07-25T21:22:10.048Z,51.68
2022-07-25T21:24:40.797Z,51.64
2022-07-25T21:27:08.491Z,51.66
2022-07-25T21:29:41.025Z,51.49
2022-07-25T21:32:09.235Z,51.92
2022-07-25T21:34:36.934Z,51.75
2022-07-25T21:37:04.739Z,51.50
2022-07-25T21:39:32.813Z,51.87
2022-07-25T21:42:00.850Z,52.29
2022-07-25T21:44:28.838Z,51.97
2022-07-25T21:46:57.943Z,52.52
2022-07-25T21:49:43.525Z,53.03
2022-07-25T21:52:13.899Z,53.38
2022-07-25T21:54:42.008Z,53.42
2022-07-25T21:57:21.675Z,53.65
2022-07-25T21:59:49.368Z,53.78
2022-07-25T22:02:18.500Z,53.56
2022-07-25T22:04:46.151Z,53.84
2022-07-25T22:07:14.996Z,53.14
2022-07-25T22:09:43.010Z,54.44
2022-07-25T22:12:10.895Z,54.14
2022-07-25T22:14:39.343Z,54.22
2022-07-25T22:17:08.403Z,55.04
2022-07-25T22:19:37.697Z,56.12
2022-07-25T22:22:06.170Z,56.05
2022-07-25T22:24:37.188Z,55.77
2022-07-25T22:27:04.934Z,55.62
2022-07-25T22:29:32.639Z,54.64
2022-07-25T22:32:02.095Z,54.14
2022-07-25T22:34:29.786Z,56.51
2022-07-25T22:37:01.647Z,54.63
2022-07-25T22:39:30.247Z,55.38
2022-07-25T22:41:57.881Z,54.80
2022-07-25T22:44:25.622Z,55.55
2022-07-25T22:46:53.259Z,55.94
2022-07-25T22:49:23.259Z,56.25
2022-07-25T22:51:50.999Z,55.93
2022-07-25T22:54:20.095Z,55.29
2022-07-25T22:56:50.411Z,54.72
2022-07-25T22:59:18.135Z,55.72
2022-07-25T23:01:45.878Z,56.11
2022-07-25T23:04:13.680Z,56.97
2022-07-25T23:06:42.607Z,56.33
2022-07-25T23:09:11.237Z,56.75
2022-07-25T23:11:40.908Z,56.58
2022-07-25T23:14:10.994Z,57.28
2022-07-25T23:16:41.900Z,55.67
2022-07-25T23:19:12.152Z,58.34
2022-07-25T23:21:39.983Z,58.89
2022-07-25T23:24:07.957Z,59.95
2022-07-25T23:26:35.650Z,60.41
2022-07-25T23:29:06.278Z,59.28
2022-07-25T23:31:34.545Z,59.94
2022-07-25T23:34:02.465Z,59.40
2022-07-25T23:36:30.044Z,59.08
2022-07-25T23:38:57.610Z,60.19
2022-07-25T23:41:25.224Z,60.03
2022-07-25T23:43:57.020Z,58.70
2022-07-25T23:46:29.519Z,59.67
2022-07-25T23:48:58.893Z,58.76
2022-07-25T23:51:27.549Z,58.07
2022-07-25T23:53:56.923Z,58.38
2022-07-25T23:56:26.764Z,58.35
2022-07-25T23:58:56.806Z,59.97
